sensor_id;sensor_type;location;lat;lon;timestamp;temperature;humidity
73586;DHT22;61865;50.232;18.614;2022-07-29T00:00:26;14.10;96.00
73586;DHT22;61865;50.232;18.614;2022-07-29T00:02:50;14.00;95.80
73586;DHT22;61865;50.232;18.614;2022-07-29T00:05:12;14.00;95.90
73586;DHT22;61865;50.232;18.614;2022-07-29T00:07:34;14.00;95.30
73586;DHT22;61865;50.232;18.614;2022-07-29T00:09:55;14.00;94.70
73586;DHT22;61865;50.232;18.614;2022-07-29T00:12:18;13.90;96.20
73586;DHT22;61865;50.232;18.614;2022-07-29T00:14:40;14.00;97.10
73586;DHT22;61865;50.232;18.614;2022-07-29T00:17:02;14.00;96.80
73586;DHT22;61865;50.232;18.614;2022-07-29T00:19:25;14.10;96.70
73586;DHT22;61865;50.232;18.614;2022-07-29T00:21:47;14.10;96.50
73586;DHT22;61865;50.232;18.614;2022-07-29T00:24:09;14.20;96.60
73586;DHT22;61865;50.232;18.614;2022-07-29T00:26:31;14.20;96.70
73586;DHT22;61865;50.232;18.614;2022-07-29T00:28:53;14.20;96.60
73586;DHT22;61865;50.232;18.614;2022-07-29T00:31:15;14.20;96.50
73586;DHT22;61865;50.232;18.614;2022-07-29T00:33:36;14.10;96.50
73586;DHT22;61865;50.232;18.614;2022-07-29T00:36:00;14.10;96.80
73586;DHT22;61865;50.232;18.614;2022-07-29T00:38:21;14.10;97.10
73586;DHT22;61865;50.232;18.614;2022-07-29T00:40:44;14.10;97.20
73586;DHT22;61865;50.232;18.614;2022-07-29T00:43:05;14.00;97.40
73586;DHT22;61865;50.232;18.614;2022-07-29T00:45:28;14.00;97.70
73586;DHT22;61865;50.232;18.614;2022-07-29T00:47:50;14.10;97.90
73586;DHT22;61865;50.232;18.614;2022-07-29T00:50:13;14.10;97.70
73586;DHT22;61865;50.232;18.614;2022-07-29T00:52:37;14.10;97.40
73586;DHT22;61865;50.232;18.614;2022-07-29T00:54:59;14.20;97.50
73586;DHT22;61865;50.232;18.614;2022-07-29T00:57:21;14.20;97.40
73586;DHT22;61865;50.232;18.614;2022-07-29T00:59:43;14.30;97.20
73586;DHT22;61865;50.232;18.614;2022-07-29T01:02:05;14.40;97.00
73586;DHT22;61865;50.232;18.614;2022-07-29T01:04:27;14.40;96.90
73586;DHT22;61865;50.232;18.614;2022-07-29T01:06:50;14.40;96.20
73586;DHT22;61865;50.232;18.614;2022-07-29T01:09:15;14.50;95.80
73586;DHT22;61865;50.232;18.614;2022-07-29T01:11:37;14.50;95.50
73586;DHT22;61865;50.232;18.614;2022-07-29T01:14:00;14.50;95.40
73586;DHT22;61865;50.232;18.614;2022-07-29T01:16:25;14.60;95.40
73586;DHT22;61865;50.232;18.614;2022-07-29T01:18:54;14.60;95.10
73586;DHT22;61865;50.232;18.614;2022-07-29T01:21:33;14.60;95.10
73586;DHT22;61865;50.232;18.614;2022-07-29T01:24:11;14.60;95.20
73586;DHT22;61865;50.232;18.614;2022-07-29T01:26:46;14.60;94.70
73586;DHT22;61865;50.232;18.614;2022-07-29T01:29:15;14.60;94.70
73586;DHT22;61865;50.232;18.614;2022-07-29T01:31:45;14.60;94.20
73586;DHT22;61865;50.232;18.614;2022-07-29T01:34:11;14.60;93.60
73586;DHT22;61865;50.232;18.614;2022-07-29T01:36:40;14.70;93.00
73586;DHT22;61865;50.232;18.614;2022-07-29T01:39:08;14.70;92.80
73586;DHT22;61865;50.232;18.614;2022-07-29T01:41:33;14.70;92.50
73586;DHT22;61865;50.232;18.614;2022-07-29T01:43:57;14.70;92.30
73586;DHT22;61865;50.232;18.614;2022-07-29T01:46:27;14.70;92.30
73586;DHT22;61865;50.232;18.614;2022-07-29T01:48:56;14.70;92.10
73586;DHT22;61865;50.232;18.614;2022-07-29T01:51:21;14.70;92.00
73586;DHT22;61865;50.232;18.614;2022-07-29T01:53:47;14.70;91.60
73586;DHT22;61865;50.232;18.614;2022-07-29T01:56:12;14.70;91.60
73586;DHT22;61865;50.232;18.614;2022-07-29T01:58:35;14.70;91.40
73586;DHT22;61865;50.232;18.614;2022-07-29T02:01:00;14.70;91.00
73586;DHT22;61865;50.232;18.614;2022-07-29T02:03:25;14.70;90.70
73586;DHT22;61865;50.232;18.614;2022-07-29T02:05:48;14.60;90.70
73586;DHT22;61865;50.232;18.614;2022-07-29T02:08:12;14.60;90.60
73586;DHT22;61865;50.232;18.614;2022-07-29T02:10:35;14.60;89.70
73586;DHT22;61865;50.232;18.614;2022-07-29T02:12:59;14.60;88.10
73586;DHT22;61865;50.232;18.614;2022-07-29T02:15:22;14.60;87.00
73586;DHT22;61865;50.232;18.614;2022-07-29T02:17:48;14.70;86.20
73586;DHT22;61865;50.232;18.614;2022-07-29T02:20:13;14.70;84.80
73586;DHT22;61865;50.232;18.614;2022-07-29T02:22:37;14.70;84.90
73586;DHT22;61865;50.232;18.614;2022-07-29T02:25:00;14.70;85.20
73586;DHT22;61865;50.232;18.614;2022-07-29T02:27:23;14.70;84.30
73586;DHT22;61865;50.232;18.614;2022-07-29T02:29:49;14.60;84.30
73586;DHT22;61865;50.232;18.614;2022-07-29T02:32:13;14.60;84.50
73586;DHT22;61865;50.232;18.614;2022-07-29T02:34:38;14.60;85.20
73586;DHT22;61865;50.232;18.614;2022-07-29T02:37:03;14.60;84.20
73586;DHT22;61865;50.232;18.614;2022-07-29T02:39:27;14.60;84.80
73586;DHT22;61865;50.232;18.614;2022-07-29T02:41:52;14.60;85.40
73586;DHT22;61865;50.232;18.614;2022-07-29T02:44:17;14.50;85.50
73586;DHT22;61865;50.232;18.614;2022-07-29T02:46:45;14.50;86.50
73586;DHT22;61865;50.232;18.614;2022-07-29T02:49:11;14.50;85.80
73586;DHT22;61865;50.232;18.614;2022-07-29T02:51:41;14.50;85.50
73586;DHT22;61865;50.232;18.614;2022-07-29T02:54:07;14.50;84.60
73586;DHT22;61865;50.232;18.614;2022-07-29T02:56:32;14.50;84.80
73586;DHT22;61865;50.232;18.614;2022-07-29T02:58:58;14.50;83.40
73586;DHT22;61865;50.232;18.614;2022-07-29T03:01:23;14.50;82.60
73586;DHT22;61865;50.232;18.614;2022-07-29T03:03:46;14.60;81.80
73586;DHT22;61865;50.232;18.614;2022-07-29T03:06:10;14.70;81.20
73586;DHT22;61865;50.232;18.614;2022-07-29T03:08:34;14.80;80.90
73586;DHT22;61865;50.232;18.614;2022-07-29T03:10:59;14.90;80.30
73586;DHT22;61865;50.232;18.614;2022-07-29T03:13:21;14.90;80.00
73586;DHT22;61865;50.232;18.614;2022-07-29T03:15:44;15.00;78.50
73586;DHT22;61865;50.232;18.614;2022-07-29T03:18:06;15.00;78.10
73586;DHT22;61865;50.232;18.614;2022-07-29T03:20:28;15.00;77.50
73586;DHT22;61865;50.232;18.614;2022-07-29T03:22:51;15.00;77.00
73586;DHT22;61865;50.232;18.614;2022-07-29T03:25:14;15.10;76.30
73586;DHT22;61865;50.232;18.614;2022-07-29T03:27:38;15.10;75.90
73586;DHT22;61865;50.232;18.614;2022-07-29T03:30:00;15.20;75.70
73586;DHT22;61865;50.232;18.614;2022-07-29T03:32:22;15.30;74.80
73586;DHT22;61865;50.232;18.614;2022-07-29T03:34:44;15.30;73.70
73586;DHT22;61865;50.232;18.614;2022-07-29T03:37:06;15.40;74.00
73586;DHT22;61865;50.232;18.614;2022-07-29T03:39:33;15.50;73.80
73586;DHT22;61865;50.232;18.614;2022-07-29T03:41:58;15.60;74.10
73586;DHT22;61865;50.232;18.614;2022-07-29T03:44:22;15.70;72.20
73586;DHT22;61865;50.232;18.614;2022-07-29T03:46:46;15.80;72.80
73586;DHT22;61865;50.232;18.614;2022-07-29T03:49:11;15.80;73.20
73586;DHT22;61865;50.232;18.614;2022-07-29T03:51:36;15.80;72.30
73586;DHT22;61865;50.232;18.614;2022-07-29T03:53:58;15.90;71.90
73586;DHT22;61865;50.232;18.614;2022-07-29T03:56:21;16.00;71.60
73586;DHT22;61865;50.232;18.614;2022-07-29T03:58:44;16.10;72.80
73586;DHT22;61865;50.232;18.614;2022-07-29T04:01:08;16.20;71.60
73586;DHT22;61865;50.232;18.614;2022-07-29T04:03:30;16.30;71.60
73586;DHT22;61865;50.232;18.614;2022-07-29T04:06:00;16.40;72.50
73586;DHT22;61865;50.232;18.614;2022-07-29T04:08:22;16.40;72.10
73586;DHT22;61865;50.232;18.614;2022-07-29T04:10:44;16.50;72.00
73586;DHT22;61865;50.232;18.614;2022-07-29T04:13:07;16.50;70.70
73586;DHT22;61865;50.232;18.614;2022-07-29T04:15:29;16.50;71.10
73586;DHT22;61865;50.232;18.614;2022-07-29T04:17:53;16.50;70.10
73586;DHT22;61865;50.232;18.614;2022-07-29T04:20:14;16.50;71.90
73586;DHT22;61865;50.232;18.614;2022-07-29T04:22:36;16.60;70.80
73586;DHT22;61865;50.232;18.614;2022-07-29T04:24:58;16.50;70.60
73586;DHT22;61865;50.232;18.614;2022-07-29T04:27:20;16.60;70.60
73586;DHT22;61865;50.232;18.614;2022-07-29T04:29:42;16.60;70.10
73586;DHT22;61865;50.232;18.614;2022-07-29T04:32:05;16.60;70.00
73586;DHT22;61865;50.232;18.614;2022-07-29T04:34:28;16.60;70.20
73586;DHT22;61865;50.232;18.614;2022-07-29T04:36:50;16.60;69.20
73586;DHT22;61865;50.232;18.614;2022-07-29T04:39:12;16.60;69.30
73586;DHT22;61865;50.232;18.614;2022-07-29T04:41:34;16.70;69.60
73586;DHT22;61865;50.232;18.614;2022-07-29T04:43:56;16.90;69.50
73586;DHT22;61865;50.232;18.614;2022-07-29T04:46:18;17.00;68.30
73586;DHT22;61865;50.232;18.614;2022-07-29T04:48:39;17.30;67.20
73586;DHT22;61865;50.232;18.614;2022-07-29T04:51:03;17.70;67.10
73586;DHT22;61865;50.232;18.614;2022-07-29T04:53:25;18.00;63.90
73586;DHT22;61865;50.232;18.614;2022-07-29T04:55:47;18.40;62.40
73586;DHT22;61865;50.232;18.614;2022-07-29T04:58:09;18.70;61.90
73586;DHT22;61865;50.232;18.614;2022-07-29T05:00:31;18.90;61.50
73586;DHT22;61865;50.232;18.614;2022-07-29T05:02:53;19.10;60.50
73586;DHT22;61865;50.232;18.614;2022-07-29T05:05:15;19.40;58.70
73586;DHT22;61865;50.232;18.614;2022-07-29T05:07:38;19.50;58.00
73586;DHT22;61865;50.232;18.614;2022-07-29T05:10:00;19.70;58.40
73586;DHT22;61865;50.232;18.614;2022-07-29T05:12:22;19.80;58.40
73586;DHT22;61865;50.232;18.614;2022-07-29T05:14:44;19.80;57.50
73586;DHT22;61865;50.232;18.614;2022-07-29T05:17:05;20.00;56.70
73586;DHT22;61865;50.232;18.614;2022-07-29T05:19:27;20.10;56.90
73586;DHT22;61865;50.232;18.614;2022-07-29T05:21:49;20.30;57.20
73586;DHT22;61865;50.232;18.614;2022-07-29T05:24:13;20.40;56.30
73586;DHT22;61865;50.232;18.614;2022-07-29T05:26:35;20.60;55.50
73586;DHT22;61865;50.232;18.614;2022-07-29T05:28:57;20.70;55.80
73586;DHT22;61865;50.232;18.614;2022-07-29T05:31:19;20.80;54.70
73586;DHT22;61865;50.232;18.614;2022-07-29T05:33:40;20.80;55.00
73586;DHT22;61865;50.232;18.614;2022-07-29T05:36:03;20.90;55.40
73586;DHT22;61865;50.232;18.614;2022-07-29T05:38:25;21.10;55.00
73586;DHT22;61865;50.232;18.614;2022-07-29T05:40:49;21.30;55.20
73586;DHT22;61865;50.232;18.614;2022-07-29T05:43:11;21.40;53.30
73586;DHT22;61865;50.232;18.614;2022-07-29T05:45:32;21.50;53.90
73586;DHT22;61865;50.232;18.614;2022-07-29T05:47:54;21.50;53.50
73586;DHT22;61865;50.232;18.614;2022-07-29T05:50:16;21.20;55.10
73586;DHT22;61865;50.232;18.614;2022-07-29T05:52:38;21.00;55.00
73586;DHT22;61865;50.232;18.614;2022-07-29T05:55:00;20.90;55.90
73586;DHT22;61865;50.232;18.614;2022-07-29T05:57:26;20.70;55.90
73586;DHT22;61865;50.232;18.614;2022-07-29T05:59:48;20.60;57.00
73586;DHT22;61865;50.232;18.614;2022-07-29T06:02:10;20.50;57.40
73586;DHT22;61865;50.232;18.614;2022-07-29T06:04:33;20.50;57.70
73586;DHT22;61865;50.232;18.614;2022-07-29T06:06:55;20.50;57.90
73586;DHT22;61865;50.232;18.614;2022-07-29T06:09:17;20.60;57.50
73586;DHT22;61865;50.232;18.614;2022-07-29T06:11:38;20.70;58.10
73586;DHT22;61865;50.232;18.614;2022-07-29T06:14:02;20.90;58.30
73586;DHT22;61865;50.232;18.614;2022-07-29T06:16:24;20.80;57.90
73586;DHT22;61865;50.232;18.614;2022-07-29T06:18:46;20.90;57.80
73586;DHT22;61865;50.232;18.614;2022-07-29T06:21:09;21.00;57.10
73586;DHT22;61865;50.232;18.614;2022-07-29T06:23:31;21.00;57.90
73586;DHT22;61865;50.232;18.614;2022-07-29T06:25:53;21.10;57.80
73586;DHT22;61865;50.232;18.614;2022-07-29T06:28:15;21.20;58.00
73586;DHT22;61865;50.232;18.614;2022-07-29T06:30:38;21.30;57.50
73586;DHT22;61865;50.232;18.614;2022-07-29T06:33:00;21.30;57.70
73586;DHT22;61865;50.232;18.614;2022-07-29T06:35:23;21.40;57.50
73586;DHT22;61865;50.232;18.614;2022-07-29T06:37:45;21.50;57.30
73586;DHT22;61865;50.232;18.614;2022-07-29T06:40:08;21.60;56.90
73586;DHT22;61865;50.232;18.614;2022-07-29T06:42:47;21.70;56.40
73586;DHT22;61865;50.232;18.614;2022-07-29T06:45:10;21.70;57.20
73586;DHT22;61865;50.232;18.614;2022-07-29T06:47:34;21.70;56.60
73586;DHT22;61865;50.232;18.614;2022-07-29T06:49:56;21.80;57.40
73586;DHT22;61865;50.232;18.614;2022-07-29T06:52:17;21.90;57.50
73586;DHT22;61865;50.232;18.614;2022-07-29T06:54:39;21.90;57.30
73586;DHT22;61865;50.232;18.614;2022-07-29T06:57:08;22.00;57.60
73586;DHT22;61865;50.232;18.614;2022-07-29T06:59:30;22.00;56.20
73586;DHT22;61865;50.232;18.614;2022-07-29T07:01:52;22.10;57.20
73586;DHT22;61865;50.232;18.614;2022-07-29T07:04:16;22.00;57.00
73586;DHT22;61865;50.232;18.614;2022-07-29T07:06:38;22.10;58.30
73586;DHT22;61865;50.232;18.614;2022-07-29T07:09:02;22.30;58.20
73586;DHT22;61865;50.232;18.614;2022-07-29T07:11:24;22.50;57.30
73586;DHT22;61865;50.232;18.614;2022-07-29T07:13:46;23.10;57.00
73586;DHT22;61865;50.232;18.614;2022-07-29T07:16:08;23.50;54.50
73586;DHT22;61865;50.232;18.614;2022-07-29T07:18:30;23.90;53.90
73586;DHT22;61865;50.232;18.614;2022-07-29T07:20:53;24.20;52.70
73586;DHT22;61865;50.232;18.614;2022-07-29T07:23:15;24.30;52.10
73586;DHT22;61865;50.232;18.614;2022-07-29T07:25:37;24.10;52.50
73586;DHT22;61865;50.232;18.614;2022-07-29T07:28:03;24.10;53.90
73586;DHT22;61865;50.232;18.614;2022-07-29T07:30:25;24.20;51.90
73586;DHT22;61865;50.232;18.614;2022-07-29T07:32:47;24.30;51.90
73586;DHT22;61865;50.232;18.614;2022-07-29T07:35:10;24.40;51.70
73586;DHT22;61865;50.232;18.614;2022-07-29T07:37:35;24.50;51.40
73586;DHT22;61865;50.232;18.614;2022-07-29T07:39:56;24.70;51.20
73586;DHT22;61865;50.232;18.614;2022-07-29T07:42:19;24.90;51.80
73586;DHT22;61865;50.232;18.614;2022-07-29T07:44:41;24.80;51.60
73586;DHT22;61865;50.232;18.614;2022-07-29T07:47:04;24.80;51.70
73586;DHT22;61865;50.232;18.614;2022-07-29T07:49:25;24.80;52.30
73586;DHT22;61865;50.232;18.614;2022-07-29T07:51:47;24.80;52.40
73586;DHT22;61865;50.232;18.614;2022-07-29T07:54:11;24.90;52.20
73586;DHT22;61865;50.232;18.614;2022-07-29T07:56:32;24.90;52.20
73586;DHT22;61865;50.232;18.614;2022-07-29T07:58:54;24.90;51.30
73586;DHT22;61865;50.232;18.614;2022-07-29T08:01:16;24.80;52.00
73586;DHT22;61865;50.232;18.614;2022-07-29T08:03:40;24.80;52.10
73586;DHT22;61865;50.232;18.614;2022-07-29T08:06:02;24.70;51.80
73586;DHT22;61865;50.232;18.614;2022-07-29T08:08:24;24.80;53.10
73586;DHT22;61865;50.232;18.614;2022-07-29T08:10:47;24.90;51.80
73586;DHT22;61865;50.232;18.614;2022-07-29T08:13:16;25.10;52.10
73586;DHT22;61865;50.232;18.614;2022-07-29T08:15:39;25.30;52.70
73586;DHT22;61865;50.232;18.614;2022-07-29T08:18:02;25.60;50.90
73586;DHT22;61865;50.232;18.614;2022-07-29T08:20:24;25.90;50.30
73586;DHT22;61865;50.232;18.614;2022-07-29T08:22:46;26.10;49.30
73586;DHT22;61865;50.232;18.614;2022-07-29T08:25:08;26.30;49.40
73586;DHT22;61865;50.232;18.614;2022-07-29T08:27:31;26.40;48.50
73586;DHT22;61865;50.232;18.614;2022-07-29T08:29:53;26.40;48.00
73586;DHT22;61865;50.232;18.614;2022-07-29T08:32:16;26.40;49.40
73586;DHT22;61865;50.232;18.614;2022-07-29T08:34:38;26.50;49.60
73586;DHT22;61865;50.232;18.614;2022-07-29T08:37:00;26.70;48.90
73586;DHT22;61865;50.232;18.614;2022-07-29T08:39:22;26.90;47.30
73586;DHT22;61865;50.232;18.614;2022-07-29T08:41:44;26.90;47.10
73586;DHT22;61865;50.232;18.614;2022-07-29T08:44:07;27.00;47.70
73586;DHT22;61865;50.232;18.614;2022-07-29T08:46:29;26.90;47.10
73586;DHT22;61865;50.232;18.614;2022-07-29T08:48:51;27.00;47.60
73586;DHT22;61865;50.232;18.614;2022-07-29T08:51:14;27.10;47.40
73586;DHT22;61865;50.232;18.614;2022-07-29T08:53:36;27.40;46.70
73586;DHT22;61865;50.232;18.614;2022-07-29T08:55:59;27.50;46.40
73586;DHT22;61865;50.232;18.614;2022-07-29T08:58:23;27.50;45.30
73586;DHT22;61865;50.232;18.614;2022-07-29T09:00:51;27.70;45.50
73586;DHT22;61865;50.232;18.614;2022-07-29T09:03:16;27.70;45.80
73586;DHT22;61865;50.232;18.614;2022-07-29T09:05:41;27.90;46.10
73586;DHT22;61865;50.232;18.614;2022-07-29T09:08:04;27.70;45.70
73586;DHT22;61865;50.232;18.614;2022-07-29T09:10:26;27.70;45.30
73586;DHT22;61865;50.232;18.614;2022-07-29T09:12:48;27.90;45.70
73586;DHT22;61865;50.232;18.614;2022-07-29T09:15:10;27.90;45.60
73586;DHT22;61865;50.232;18.614;2022-07-29T09:17:44;27.90;46.10
73586;DHT22;61865;50.232;18.614;2022-07-29T09:20:10;27.90;45.40
73586;DHT22;61865;50.232;18.614;2022-07-29T09:22:32;27.80;46.80
73586;DHT22;61865;50.232;18.614;2022-07-29T09:24:54;27.80;46.20
73586;DHT22;61865;50.232;18.614;2022-07-29T09:27:20;27.70;45.10
73586;DHT22;61865;50.232;18.614;2022-07-29T09:29:43;27.80;45.60
73586;DHT22;61865;50.232;18.614;2022-07-29T09:32:09;27.70;45.30
73586;DHT22;61865;50.232;18.614;2022-07-29T09:34:33;27.80;44.90
73586;DHT22;61865;50.232;18.614;2022-07-29T09:36:55;27.70;45.30
73586;DHT22;61865;50.232;18.614;2022-07-29T09:39:29;27.80;45.00
73586;DHT22;61865;50.232;18.614;2022-07-29T09:41:52;27.80;46.10
73586;DHT22;61865;50.232;18.614;2022-07-29T09:44:15;28.10;46.00
73586;DHT22;61865;50.232;18.614;2022-07-29T09:46:37;28.40;43.80
73586;DHT22;61865;50.232;18.614;2022-07-29T09:49:08;28.70;43.40
73586;DHT22;61865;50.232;18.614;2022-07-29T09:51:32;28.70;44.30
73586;DHT22;61865;50.232;18.614;2022-07-29T09:53:53;28.50;44.00
73586;DHT22;61865;50.232;18.614;2022-07-29T09:56:16;28.80;43.20
73586;DHT22;61865;50.232;18.614;2022-07-29T09:58:38;29.00;43.00
73586;DHT22;61865;50.232;18.614;2022-07-29T10:01:00;29.30;43.30
73586;DHT22;61865;50.232;18.614;2022-07-29T10:03:22;29.40;42.10
73586;DHT22;61865;50.232;18.614;2022-07-29T10:05:45;29.40;41.90
73586;DHT22;61865;50.232;18.614;2022-07-29T10:08:09;29.50;41.80
73586;DHT22;61865;50.232;18.614;2022-07-29T10:10:34;29.50;41.60
73586;DHT22;61865;50.232;18.614;2022-07-29T10:12:57;29.40;42.20
73586;DHT22;61865;50.232;18.614;2022-07-29T10:15:22;29.40;41.60
73586;DHT22;61865;50.232;18.614;2022-07-29T10:17:44;29.80;42.00
73586;DHT22;61865;50.232;18.614;2022-07-29T10:20:08;29.80;40.90
73586;DHT22;61865;50.232;18.614;2022-07-29T10:22:30;29.80;40.10
73586;DHT22;61865;50.232;18.614;2022-07-29T10:24:54;29.80;40.50
73586;DHT22;61865;50.232;18.614;2022-07-29T10:27:16;29.90;40.70
73586;DHT22;61865;50.232;18.614;2022-07-29T10:29:38;30.00;40.50
73586;DHT22;61865;50.232;18.614;2022-07-29T10:32:21;29.70;40.00
73586;DHT22;61865;50.232;18.614;2022-07-29T10:35:07;29.60;40.90
73586;DHT22;61865;50.232;18.614;2022-07-29T10:37:41;29.80;41.20
73586;DHT22;61865;50.232;18.614;2022-07-29T10:40:15;29.70;40.90
73586;DHT22;61865;50.232;18.614;2022-07-29T10:43:00;29.60;40.70
73586;DHT22;61865;50.232;18.614;2022-07-29T10:45:25;29.70;41.40
73586;DHT22;61865;50.232;18.614;2022-07-29T10:47:47;29.70;41.30
73586;DHT22;61865;50.232;18.614;2022-07-29T10:50:09;29.70;40.50
73586;DHT22;61865;50.232;18.614;2022-07-29T10:52:51;29.70;41.00
73586;DHT22;61865;50.232;18.614;2022-07-29T10:55:36;29.60;40.90
73586;DHT22;61865;50.232;18.614;2022-07-29T10:58:17;29.60;41.70
73586;DHT22;61865;50.232;18.614;2022-07-29T11:00:39;29.60;40.90
73586;DHT22;61865;50.232;18.614;2022-07-29T11:03:01;29.70;40.90
73586;DHT22;61865;50.232;18.614;2022-07-29T11:05:23;29.40;40.80
73586;DHT22;61865;50.232;18.614;2022-07-29T11:08:18;29.30;40.90
73586;DHT22;61865;50.232;18.614;2022-07-29T11:10:43;29.00;41.00
73586;DHT22;61865;50.232;18.614;2022-07-29T11:13:05;29.10;41.30
73586;DHT22;61865;50.232;18.614;2022-07-29T11:15:27;29.30;41.20
73586;DHT22;61865;50.232;18.614;2022-07-29T11:18:04;29.60;40.80
73586;DHT22;61865;50.232;18.614;2022-07-29T11:20:34;30.00;41.10
73586;DHT22;61865;50.232;18.614;2022-07-29T11:22:56;30.00;40.80
73586;DHT22;61865;50.232;18.614;2022-07-29T11:25:19;30.10;40.80
73586;DHT22;61865;50.232;18.614;2022-07-29T11:27:42;29.90;40.00
73586;DHT22;61865;50.232;18.614;2022-07-29T11:30:06;29.70;40.80
73586;DHT22;61865;50.232;18.614;2022-07-29T11:32:36;29.60;40.40
73586;DHT22;61865;50.232;18.614;2022-07-29T11:35:15;29.60;40.60
73586;DHT22;61865;50.232;18.614;2022-07-29T11:37:38;29.60;40.60
73586;DHT22;61865;50.232;18.614;2022-07-29T11:40:11;29.50;40.80
73586;DHT22;61865;50.232;18.614;2022-07-29T11:42:43;29.40;40.40
73586;DHT22;61865;50.232;18.614;2022-07-29T11:45:10;29.40;41.40
73586;DHT22;61865;50.232;18.614;2022-07-29T11:47:35;29.30;40.90
73586;DHT22;61865;50.232;18.614;2022-07-29T11:49:59;29.20;40.40
73586;DHT22;61865;50.232;18.614;2022-07-29T11:52:21;29.20;41.10
73586;DHT22;61865;50.232;18.614;2022-07-29T11:54:43;29.10;42.00
73586;DHT22;61865;50.232;18.614;2022-07-29T11:57:07;28.90;42.40
73586;DHT22;61865;50.232;18.614;2022-07-29T11:59:31;28.70;42.50
73586;DHT22;61865;50.232;18.614;2022-07-29T12:01:53;28.50;42.30
73586;DHT22;61865;50.232;18.614;2022-07-29T12:04:15;28.30;44.10
73586;DHT22;61865;50.232;18.614;2022-07-29T12:06:37;28.20;44.50
73586;DHT22;61865;50.232;18.614;2022-07-29T12:08:59;28.20;43.60
73586;DHT22;61865;50.232;18.614;2022-07-29T12:11:21;28.20;44.80
73586;DHT22;61865;50.232;18.614;2022-07-29T12:13:42;28.10;43.30
73586;DHT22;61865;50.232;18.614;2022-07-29T12:16:06;28.10;43.90
73586;DHT22;61865;50.232;18.614;2022-07-29T12:18:28;28.10;43.10
73586;DHT22;61865;50.232;18.614;2022-07-29T12:20:57;28.10;43.30
73586;DHT22;61865;50.232;18.614;2022-07-29T12:23:19;28.10;43.10
73586;DHT22;61865;50.232;18.614;2022-07-29T12:25:42;28.10;43.60
73586;DHT22;61865;50.232;18.614;2022-07-29T12:28:06;28.20;43.60
73586;DHT22;61865;50.232;18.614;2022-07-29T12:30:39;28.20;44.30
73586;DHT22;61865;50.232;18.614;2022-07-29T12:33:10;28.40;43.20
73586;DHT22;61865;50.232;18.614;2022-07-29T12:35:33;28.50;42.40
73586;DHT22;61865;50.232;18.614;2022-07-29T12:37:54;28.50;41.70
73586;DHT22;61865;50.232;18.614;2022-07-29T12:40:18;28.40;42.20
73586;DHT22;61865;50.232;18.614;2022-07-29T12:43:04;28.30;42.70
73586;DHT22;61865;50.232;18.614;2022-07-29T12:45:28;28.10;42.70
73586;DHT22;61865;50.232;18.614;2022-07-29T12:47:51;28.00;43.50
73586;DHT22;61865;50.232;18.614;2022-07-29T12:50:15;28.10;43.80
73586;DHT22;61865;50.232;18.614;2022-07-29T12:52:38;28.10;43.40
73586;DHT22;61865;50.232;18.614;2022-07-29T12:55:00;28.10;43.80
73586;DHT22;61865;50.232;18.614;2022-07-29T12:57:22;28.20;43.30
73586;DHT22;61865;50.232;18.614;2022-07-29T12:59:45;28.20;44.00
73586;DHT22;61865;50.232;18.614;2022-07-29T13:02:06;28.30;43.70
73586;DHT22;61865;50.232;18.614;2022-07-29T13:04:29;28.50;43.60
73586;DHT22;61865;50.232;18.614;2022-07-29T13:07:00;28.50;41.80
73586;DHT22;61865;50.232;18.614;2022-07-29T13:09:22;28.40;43.00
73586;DHT22;61865;50.232;18.614;2022-07-29T13:11:45;28.50;43.20
73586;DHT22;61865;50.232;18.614;2022-07-29T13:14:08;28.50;42.00
73586;DHT22;61865;50.232;18.614;2022-07-29T13:16:31;28.40;42.00
73586;DHT22;61865;50.232;18.614;2022-07-29T13:19:07;28.40;41.40
73586;DHT22;61865;50.232;18.614;2022-07-29T13:21:29;28.30;43.20
73586;DHT22;61865;50.232;18.614;2022-07-29T13:23:53;28.40;42.40
73586;DHT22;61865;50.232;18.614;2022-07-29T13:26:14;28.40;41.50
73586;DHT22;61865;50.232;18.614;2022-07-29T13:28:40;28.30;41.60
73586;DHT22;61865;50.232;18.614;2022-07-29T13:31:02;28.30;42.00
73586;DHT22;61865;50.232;18.614;2022-07-29T13:33:25;28.30;41.70
73586;DHT22;61865;50.232;18.614;2022-07-29T13:35:46;28.40;42.70
73586;DHT22;61865;50.232;18.614;2022-07-29T13:38:09;28.50;42.30
73586;DHT22;61865;50.232;18.614;2022-07-29T13:40:32;28.60;42.50
73586;DHT22;61865;50.232;18.614;2022-07-29T13:42:55;28.60;41.60
73586;DHT22;61865;50.232;18.614;2022-07-29T13:45:17;28.60;42.00
73586;DHT22;61865;50.232;18.614;2022-07-29T13:47:39;28.60;42.10
73586;DHT22;61865;50.232;18.614;2022-07-29T13:50:02;28.60;43.20
73586;DHT22;61865;50.232;18.614;2022-07-29T13:52:24;28.50;41.80
73586;DHT22;61865;50.232;18.614;2022-07-29T13:54:47;28.40;41.80
73586;DHT22;61865;50.232;18.614;2022-07-29T13:57:11;28.30;43.00
73586;DHT22;61865;50.232;18.614;2022-07-29T13:59:33;28.10;43.10
73586;DHT22;61865;50.232;18.614;2022-07-29T14:01:55;28.00;44.20
73586;DHT22;61865;50.232;18.614;2022-07-29T14:04:17;27.70;42.90
73586;DHT22;61865;50.232;18.614;2022-07-29T14:06:39;27.60;43.70
73586;DHT22;61865;50.232;18.614;2022-07-29T14:09:01;27.70;42.80
73586;DHT22;61865;50.232;18.614;2022-07-29T14:11:23;27.70;43.80
73586;DHT22;61865;50.232;18.614;2022-07-29T14:13:46;27.80;43.20
73586;DHT22;61865;50.232;18.614;2022-07-29T14:16:08;27.70;42.60
73586;DHT22;61865;50.232;18.614;2022-07-29T14:18:30;27.70;42.50
73586;DHT22;61865;50.232;18.614;2022-07-29T14:20:52;27.70;43.50
73586;DHT22;61865;50.232;18.614;2022-07-29T14:23:14;27.70;44.50
73586;DHT22;61865;50.232;18.614;2022-07-29T14:25:36;27.80;43.60
73586;DHT22;61865;50.232;18.614;2022-07-29T14:27:58;27.80;43.50
73586;DHT22;61865;50.232;18.614;2022-07-29T14:30:21;27.80;44.00
73586;DHT22;61865;50.232;18.614;2022-07-29T14:32:43;27.80;43.50
73586;DHT22;61865;50.232;18.614;2022-07-29T14:35:06;27.80;43.90
73586;DHT22;61865;50.232;18.614;2022-07-29T14:37:28;27.70;43.50
73586;DHT22;61865;50.232;18.614;2022-07-29T14:39:50;27.70;43.50
73586;DHT22;61865;50.232;18.614;2022-07-29T14:42:12;27.70;43.00
73586;DHT22;61865;50.232;18.614;2022-07-29T14:44:34;27.70;42.50
73586;DHT22;61865;50.232;18.614;2022-07-29T14:46:57;27.70;42.90
73586;DHT22;61865;50.232;18.614;2022-07-29T14:49:19;27.90;43.20
73586;DHT22;61865;50.232;18.614;2022-07-29T14:51:41;28.10;43.40
73586;DHT22;61865;50.232;18.614;2022-07-29T14:54:03;28.20;42.70